Time;durP1;ratioP1;P1;durP2;ratioP2;P2;SDS_P1;SDS_P2;PMS_P1;PMS_P2;Temp;Humidity;BMP_temperature;BMP_pressure;BME280_temperature;BME280_humidity;BME280_pressure;Samples;Min_cycle;Max_cycle;Signal;HPM_P1;HPM_P2
2023/01/24 00:01:18;;;;;;;30.58;18.05;;;3.00;99.90;;;;;;5034068;28;20475;-36
2023/01/24 00:03:45;;;;;;;32.70;18.58;;;3.00;99.90;;;;;;5036063;28;20037;-36
2023/01/24 00:06:11;;;;;;;32.80;17.95;;;3.00;99.90;;;;;;5054659;28;20397;-36
2023/01/24 00:08:37;;;;;;;33.38;19.13;;;3.00;99.90;;;;;;5020138;28;20040;-37
2023/01/24 00:11:06;;;;;;;31.60;19.35;;;3.00;99.90;;;;;;5036525;28;20041;-36
2023/01/24 00:13:32;;;;;;;30.40;18.45;;;2.90;99.90;;;;;;5036252;28;20029;-37
2023/01/24 00:16:20;;;;;;;31.95;19.65;;;3.00;99.90;;;;;;5037235;28;20120;-37
2023/01/24 00:18:46;;;;;;;32.63;18.95;;;3.00;99.90;;;;;;5046352;28;20048;-36
2023/01/24 00:21:15;;;;;;;33.90;19.27;;;3.00;99.90;;;;;;5036521;28;20033;-36
2023/01/24 00:23:44;;;;;;;32.45;18.38;;;2.90;99.90;;;;;;5036645;28;20496;-37
2023/01/24 00:26:10;;;;;;;28.27;18.20;;;3.00;99.90;;;;;;5028222;28;20045;-36
2023/01/24 00:28:37;;;;;;;29.45;19.02;;;3.00;99.90;;;;;;5035890;28;20500;-37
2023/01/24 00:31:03;;;;;;;28.38;17.55;;;2.90;99.90;;;;;;5036528;28;20037;-36
2023/01/24 00:33:29;;;;;;;34.83;19.92;;;2.90;99.90;;;;;;5038433;28;20036;-37
2023/01/24 00:35:55;;;;;;;35.42;20.10;;;2.90;99.90;;;;;;5035896;28;20478;-37
2023/01/24 00:38:22;;;;;;;33.55;19.80;;;2.90;99.90;;;;;;5048967;28;20041;-37
2023/01/24 00:40:48;;;;;;;33.83;19.48;;;2.90;99.90;;;;;;5035973;28;20048;-36
2023/01/24 00:43:14;;;;;;;35.53;20.17;;;2.90;99.90;;;;;;5036284;28;20132;-36
2023/01/24 00:45:41;;;;;;;34.22;20.20;;;2.90;99.90;;;;;;5054528;28;20041;-37
2023/01/24 00:48:09;;;;;;;34.90;19.02;;;2.90;99.90;;;;;;5035966;28;20049;-37
2023/01/24 00:50:35;;;;;;;35.50;19.88;;;2.90;99.90;;;;;;5023871;28;20034;-37
2023/01/24 00:53:01;;;;;;;31.95;19.35;;;2.90;99.90;;;;;;5031106;28;20048;-37
2023/01/24 00:55:27;;;;;;;32.78;19.55;;;2.90;99.90;;;;;;5036711;28;20045;-36
2023/01/24 00:57:53;;;;;;;33.28;19.83;;;2.90;99.90;;;;;;5036573;28;20086;-43
2023/01/24 01:00:20;;;;;;;32.78;19.25;;;2.90;99.90;;;;;;5036150;28;20490;-37
2023/01/24 01:02:46;;;;;;;31.60;19.77;;;3.00;99.90;;;;;;5049197;28;20034;-37
2023/01/24 01:05:12;;;;;;;32.35;19.20;;;2.90;99.90;;;;;;5050750;28;20045;-36
2023/01/24 01:07:38;;;;;;;33.38;19.83;;;2.90;99.90;;;;;;5036302;28;20485;-37
2023/01/24 01:10:05;;;;;;;32.92;20.10;;;2.90;99.90;;;;;;5035904;28;20041;-36
2023/01/24 01:12:31;;;;;;;30.25;19.33;;;2.90;99.90;;;;;;5035668;28;20128;-36
2023/01/24 01:14:57;;;;;;;32.00;18.27;;;2.90;99.90;;;;;;5036272;28;20056;-37
2023/01/24 01:17:23;;;;;;;30.65;18.58;;;2.90;99.90;;;;;;5039668;28;20037;-36
2023/01/24 01:19:53;;;;;;;30.90;19.02;;;2.90;99.90;;;;;;5040003;28;20079;-37
2023/01/24 01:22:19;;;;;;;30.30;18.55;;;2.90;99.90;;;;;;5039640;28;20122;-37
2023/01/24 01:24:45;;;;;;;29.02;18.38;;;2.90;99.90;;;;;;5038233;28;20034;-37
2023/01/24 01:27:11;;;;;;;29.77;17.83;;;2.90;99.90;;;;;;5035890;28;20047;-36
2023/01/24 01:29:37;;;;;;;29.52;18.27;;;2.90;99.90;;;;;;5039265;28;20041;-37
2023/01/24 01:32:03;;;;;;;30.33;18.20;;;2.90;99.90;;;;;;5039354;28;20033;-37
2023/01/24 01:34:29;;;;;;;25.83;16.80;;;2.90;99.90;;;;;;5039801;28;20028;-37
2023/01/24 01:36:55;;;;;;;28.23;17.95;;;2.90;99.90;;;;;;5039338;28;20045;-37
2023/01/24 01:39:21;;;;;;;29.33;17.30;;;2.90;99.90;;;;;;5039337;28;20036;-36
2023/01/24 01:41:47;;;;;;;30.58;17.40;;;2.90;99.90;;;;;;5036056;28;20037;-36
2023/01/24 01:44:37;;;;;;;29.10;16.63;;;2.90;99.90;;;;;;5038409;28;20413;-36
2023/01/24 01:47:17;;;;;;;26.88;16.15;;;3.00;99.90;;;;;;5038996;28;20045;-37
2023/01/24 01:49:50;;;;;;;26.58;16.50;;;2.90;99.90;;;;;;5039160;28;20041;-36
2023/01/24 01:52:17;;;;;;;29.70;15.57;;;3.00;99.90;;;;;;5033824;28;20029;-36
2023/01/24 01:54:45;;;;;;;28.75;17.80;;;3.00;99.90;;;;;;5038889;28;20029;-37
2023/01/24 01:57:20;;;;;;;31.65;17.88;;;3.00;99.90;;;;;;5038909;28;20049;-37
2023/01/24 02:00:01;;;;;;;26.98;16.80;;;3.00;99.90;;;;;;5032488;28;20124;-36
2023/01/24 02:02:28;;;;;;;32.22;18.27;;;3.00;99.90;;;;;;5030492;28;20179;-36
2023/01/24 02:04:59;;;;;;;31.15;18.98;;;3.00;99.90;;;;;;5039009;28;20504;-37
2023/01/24 02:07:36;;;;;;;33.45;18.92;;;3.00;99.90;;;;;;5022188;28;21214;-36
2023/01/24 02:10:03;;;;;;;32.67;18.55;;;3.00;99.90;;;;;;5038679;28;20063;-37
2023/01/24 02:12:38;;;;;;;34.30;19.02;;;3.00;99.90;;;;;;5037455;28;20056;-37
2023/01/24 02:17:55;;;;;;;24.52;14.75;;;3.00;99.90;;;;;;5043563;28;20040;-37
2023/01/24 02:20:30;;;;;;;24.98;14.57;;;3.00;99.90;;;;;;5038749;28;20116;-37
2023/01/24 02:23:13;;;;;;;22.77;14.00;;;3.00;99.90;;;;;;5038396;28;20048;-41
2023/01/24 02:25:58;;;;;;;23.98;14.10;;;3.00;99.90;;;;;;5061225;28;20041;-36
2023/01/24 02:28:23;;;;;;;24.42;14.85;;;3.00;99.90;;;;;;5039679;28;20075;-36
2023/01/24 02:30:49;;;;;;;22.35;15.02;;;3.00;99.90;;;;;;5037868;28;20065;-38
2023/01/24 02:33:18;;;;;;;24.40;14.70;;;3.00;99.90;;;;;;5055782;28;20185;-36
2023/01/24 02:35:45;;;;;;;24.17;14.55;;;3.00;99.90;;;;;;5035270;28;20035;-37
2023/01/24 02:38:26;;;;;;;22.95;14.65;;;3.00;99.90;;;;;;5038157;28;20037;-37
2023/01/24 02:41:06;;;;;;;22.73;15.23;;;3.00;99.90;;;;;;5055615;28;20405;-37
2023/01/24 02:43:36;;;;;;;25.02;15.13;;;3.00;99.90;;;;;;5038033;28;20091;-37
2023/01/24 02:46:02;;;;;;;23.15;14.40;;;3.00;99.90;;;;;;5037868;28;20068;-37
2023/01/24 02:48:29;;;;;;;20.92;13.82;;;3.00;99.90;;;;;;5053504;28;20485;-39
2023/01/24 02:53:39;;;;;;;20.60;13.75;;;3.00;99.90;;;;;;5055722;28;20048;-37
2023/01/24 02:58:53;;;;;;;22.00;14.02;;;3.00;99.90;;;;;;5055488;28;20037;-37
2023/01/24 03:01:21;;;;;;;24.98;14.52;;;3.00;99.90;;;;;;5037601;28;20055;-37
2023/01/24 03:03:47;;;;;;;22.48;14.50;;;3.00;99.90;;;;;;5037538;28;20045;-37
2023/01/24 03:06:15;;;;;;;22.20;13.73;;;2.90;99.90;;;;;;5037914;28;20127;-37
2023/01/24 03:08:41;;;;;;;22.67;13.73;;;2.90;99.90;;;;;;5037250;28;20486;-37
2023/01/24 03:11:08;;;;;;;23.60;14.35;;;3.00;99.90;;;;;;5037370;28;20440;-37
2023/01/24 03:35:32;;;;;;;20.73;12.98;;;2.90;99.90;;;;;;5053285;28;20048;-37
2023/01/24 03:40:43;;;;;;;19.85;12.98;;;2.90;99.90;;;;;;5054809;28;20048;-37
2023/01/24 03:43:09;;;;;;;21.38;13.43;;;2.90;99.90;;;;;;5036524;28;20510;-36
2023/01/24 03:45:38;;;;;;;18.23;12.13;;;2.90;99.90;;;;;;5020301;28;20036;-37
2023/01/24 03:48:09;;;;;;;19.85;13.27;;;2.90;99.90;;;;;;5037185;28;20045;-36
2023/01/24 03:53:24;;;;;;;20.50;12.88;;;2.90;99.90;;;;;;5052362;28;20043;-37
2023/01/24 03:56:01;;;;;;;19.40;12.93;;;2.90;99.90;;;;;;5017051;28;20029;-37
2023/01/24 03:58:29;;;;;;;19.38;12.88;;;2.90;99.90;;;;;;5036775;28;20095;-36
2023/01/24 04:00:55;;;;;;;18.45;12.55;;;2.90;99.90;;;;;;5033529;28;20398;-37
2023/01/24 04:03:21;;;;;;;18.05;11.70;;;2.90;99.90;;;;;;5052860;28;20037;-37
2023/01/24 04:05:48;;;;;;;15.93;10.98;;;2.90;99.90;;;;;;5036874;28;20033;-36
2023/01/24 04:08:14;;;;;;;17.67;10.65;;;2.90;99.90;;;;;;5035898;28;20029;-37
2023/01/24 04:10:40;;;;;;;18.13;10.90;;;2.90;99.90;;;;;;5029257;28;20041;-36
2023/01/24 04:13:07;;;;;;;15.68;10.35;;;2.80;99.90;;;;;;5036046;28;20120;-36
2023/01/24 04:15:33;;;;;;;16.75;9.98;;;2.90;99.90;;;;;;5036714;28;20059;-36
2023/01/24 04:18:01;;;;;;;16.70;10.60;;;2.90;99.90;;;;;;5032498;28;20045;-40
2023/01/24 04:20:31;;;;;;;15.50;10.15;;;2.80;99.90;;;;;;5036266;28;20039;-40
2023/01/24 04:23:00;;;;;;;14.57;9.75;;;2.80;99.90;;;;;;5033596;28;20041;-38
2023/01/24 04:25:26;;;;;;;17.70;10.77;;;2.80;99.90;;;;;;5020026;28;20478;-38
2023/01/24 04:27:52;;;;;;;14.48;9.93;;;2.80;99.90;;;;;;5048464;28;20033;-39
2023/01/24 04:30:18;;;;;;;18.67;11.05;;;2.80;99.90;;;;;;5033304;28;20041;-39
2023/01/24 04:32:44;;;;;;;13.10;8.95;;;2.90;99.90;;;;;;5036371;28;20036;-39
2023/01/24 04:35:19;;;;;;;17.20;10.30;;;2.80;99.90;;;;;;5036491;28;20044;-39
2023/01/24 04:37:45;;;;;;;16.95;11.10;;;2.80;99.90;;;;;;5048787;28;20033;-39
2023/01/24 04:40:11;;;;;;;15.63;9.82;;;2.80;99.90;;;;;;5032698;28;20040;-39
2023/01/24 04:42:40;;;;;;;16.45;10.57;;;2.80;99.90;;;;;;5052711;28;20123;-39
2023/01/24 04:45:07;;;;;;;18.27;10.65;;;2.80;99.90;;;;;;5036212;28;20044;-38
2023/01/24 04:47:33;;;;;;;17.95;11.30;;;2.80;99.90;;;;;;5036415;28;20048;-39
2023/01/24 04:49:59;;;;;;;16.35;10.18;;;2.80;99.90;;;;;;5038551;28;20041;-39
2023/01/24 04:52:25;;;;;;;14.45;9.70;;;2.80;99.90;;;;;;5038420;28;20045;-39
2023/01/24 04:54:51;;;;;;;15.75;10.52;;;2.80;99.90;;;;;;5039897;28;20033;-38
2023/01/24 04:57:18;;;;;;;14.77;10.18;;;2.80;99.90;;;;;;5040071;28;20074;-39
2023/01/24 04:59:44;;;;;;;12.50;8.50;;;2.80;99.90;;;;;;5032057;28;20236;-39
2023/01/24 05:02:10;;;;;;;14.13;9.68;;;2.80;99.90;;;;;;5039807;28;20049;-40
2023/01/24 05:04:36;;;;;;;14.50;9.77;;;2.80;99.90;;;;;;5040204;28;20494;-40
2023/01/24 05:07:03;;;;;;;14.32;10.23;;;2.80;99.90;;;;;;5023112;28;20043;-39
2023/01/24 05:09:29;;;;;;;15.10;9.52;;;2.80;99.90;;;;;;5056386;28;20037;-35
2023/01/24 05:11:55;;;;;;;15.65;10.35;;;2.70;99.90;;;;;;5038541;28;20205;-35
2023/01/24 05:14:21;;;;;;;15.00;9.45;;;2.70;99.90;;;;;;5038542;28;20036;-34
2023/01/24 05:16:47;;;;;;;13.65;9.77;;;2.70;99.90;;;;;;5038570;28;20563;-35
2023/01/24 05:19:13;;;;;;;14.85;9.32;;;2.70;99.90;;;;;;5055380;28;20112;-35
2023/01/24 05:21:38;;;;;;;13.88;9.77;;;2.70;99.90;;;;;;5038092;28;20501;-35
2023/01/24 05:24:05;;;;;;;15.57;9.50;;;2.80;99.90;;;;;;5038649;28;20041;-35
2023/01/24 05:26:30;;;;;;;15.60;10.00;;;2.70;99.90;;;;;;5021844;28;20063;-35
2023/01/24 05:28:56;;;;;;;15.10;10.40;;;2.70;99.90;;;;;;5037719;28;20434;-35
2023/01/24 05:31:22;;;;;;;14.40;9.93;;;2.70;99.90;;;;;;5038047;28;20037;-35
2023/01/24 05:33:49;;;;;;;15.73;10.05;;;2.70;99.90;;;;;;5055403;28;20604;-34
2023/01/24 05:36:18;;;;;;;14.02;9.80;;;2.70;99.90;;;;;;5036888;28;20048;-35
2023/01/24 05:38:44;;;;;;;13.73;9.60;;;2.70;99.90;;;;;;5036771;28;20470;-35
2023/01/24 05:41:12;;;;;;;16.00;10.10;;;2.70;99.90;;;;;;5036719;28;20037;-35
2023/01/24 05:43:38;;;;;;;15.13;10.10;;;2.70;99.90;;;;;;5053146;28;20081;-34
2023/01/24 05:46:09;;;;;;;15.93;10.45;;;2.70;99.90;;;;;;5034785;28;20045;-35
2023/01/24 05:48:35;;;;;;;12.35;9.10;;;2.70;99.90;;;;;;5034773;28;20041;-34
2023/01/24 05:51:04;;;;;;;15.50;10.25;;;2.70;99.90;;;;;;5050656;28;20076;-34
2023/01/24 05:53:31;;;;;;;14.07;9.60;;;2.70;99.90;;;;;;5034144;28;20041;-34
2023/01/24 05:56:00;;;;;;;14.57;10.05;;;2.70;99.90;;;;;;5052014;28;20647;-36
2023/01/24 05:58:27;;;;;;;14.43;9.48;;;2.70;99.90;;;;;;5051229;28;20045;-36
2023/01/24 06:00:53;;;;;;;19.90;10.57;;;2.70;99.90;;;;;;5035317;28;20079;-35
2023/01/24 06:03:20;;;;;;;15.43;10.60;;;2.70;99.90;;;;;;5052822;28;20037;-35
2023/01/24 06:05:54;;;;;;;15.82;9.98;;;2.70;99.90;;;;;;5053183;28;20083;-36
2023/01/24 06:08:21;;;;;;;16.55;10.68;;;2.70;99.90;;;;;;5036169;28;20037;-36
2023/01/24 06:10:47;;;;;;;15.48;9.88;;;2.70;99.90;;;;;;5035900;28;20055;-36
2023/01/24 06:13:13;;;;;;;16.13;10.93;;;2.70;99.90;;;;;;5036238;28;20079;-36
2023/01/24 06:15:40;;;;;;;16.20;9.65;;;2.70;99.90;;;;;;5036205;28;20029;-35
2023/01/24 06:18:07;;;;;;;15.80;11.20;;;2.70;99.90;;;;;;5052618;28;20040;-35
2023/01/24 06:20:33;;;;;;;14.25;9.85;;;2.70;99.90;;;;;;5036373;28;20056;-35
2023/01/24 06:23:04;;;;;;;16.15;10.27;;;2.70;99.90;;;;;;5036273;28;20059;-36
2023/01/24 06:25:31;;;;;;;18.17;11.13;;;2.70;99.90;;;;;;5036253;28;20143;-36
2023/01/24 06:27:57;;;;;;;15.15;10.32;;;2.60;99.90;;;;;;5035980;28;20123;-35
2023/01/24 06:30:23;;;;;;;15.05;10.15;;;2.60;99.90;;;;;;5036147;28;20090;-36
2023/01/24 06:33:02;;;;;;;18.83;11.60;;;2.70;99.90;;;;;;5034937;28;20461;-36
2023/01/24 06:35:36;;;;;;;15.40;10.80;;;2.60;99.90;;;;;;5035554;28;20037;-35
2023/01/24 06:38:03;;;;;;;15.30;10.77;;;2.60;99.90;;;;;;5034955;28;20292;-36
2023/01/24 06:40:30;;;;;;;15.07;10.10;;;2.70;99.90;;;;;;5053905;28;20563;-35
2023/01/24 06:42:56;;;;;;;16.27;10.88;;;2.60;99.90;;;;;;5052196;28;20045;-35
2023/01/24 06:45:22;;;;;;;14.93;9.70;;;2.60;99.90;;;;;;5052448;28;20095;-35
2023/01/24 06:47:48;;;;;;;15.25;10.48;;;2.60;99.90;;;;;;5022903;28;20572;-35
2023/01/24 06:50:16;;;;;;;14.98;10.60;;;2.60;99.90;;;;;;5015857;28;20112;-35
2023/01/24 06:52:45;;;;;;;15.88;11.48;;;2.60;99.90;;;;;;5043177;28;20044;-35
2023/01/24 06:55:11;;;;;;;14.25;10.00;;;2.60;99.90;;;;;;5035378;28;20083;-36
2023/01/24 06:57:37;;;;;;;13.93;10.35;;;2.60;99.90;;;;;;5035590;28;20130;-36
2023/01/24 07:00:04;;;;;;;15.77;10.40;;;2.60;99.90;;;;;;5035287;28;20037;-36
2023/01/24 07:02:30;;;;;;;17.30;11.30;;;2.60;99.90;;;;;;5035096;28;20123;-35
2023/01/24 07:04:57;;;;;;;14.40;10.73;;;2.60;99.90;;;;;;5035053;28;20033;-36
2023/01/24 07:07:22;;;;;;;15.25;10.40;;;2.60;99.90;;;;;;5018115;28;20049;-35
2023/01/24 07:09:48;;;;;;;14.05;9.63;;;2.60;99.90;;;;;;5015290;28;20033;-36
2023/01/24 07:12:14;;;;;;;13.90;9.95;;;2.60;99.90;;;;;;5014842;28;20071;-36
2023/01/24 07:14:40;;;;;;;16.08;11.02;;;2.60;99.90;;;;;;5047747;28;20038;-35
2023/01/24 07:17:06;;;;;;;19.08;11.30;;;2.60;99.90;;;;;;5022704;28;20466;-35
2023/01/24 07:19:31;;;;;;;17.17;10.93;;;2.50;99.90;;;;;;5037782;28;20287;-36
2023/01/24 07:21:58;;;;;;;15.55;10.77;;;2.50;99.90;;;;;;5053736;28;20135;-36
2023/01/24 07:24:29;;;;;;;17.40;11.18;;;2.50;99.90;;;;;;5051878;28;20047;-36
2023/01/24 07:26:55;;;;;;;16.52;10.98;;;2.50;99.90;;;;;;5037911;28;20041;-36
2023/01/24 07:29:22;;;;;;;15.63;10.90;;;2.50;99.90;;;;;;5035033;28;20033;-36
2023/01/24 07:31:48;;;;;;;16.80;10.68;;;2.50;99.90;;;;;;5034594;28;20041;-36
2023/01/24 07:34:18;;;;;;;16.15;11.13;;;2.50;99.90;;;;;;5034982;28;20069;-35
2023/01/24 07:36:46;;;;;;;17.30;11.25;;;2.50;99.90;;;;;;5035046;28;20497;-35
2023/01/24 07:39:11;;;;;;;15.50;10.90;;;2.60;99.90;;;;;;5052100;28;20047;-35
2023/01/24 07:41:38;;;;;;;15.48;10.95;;;2.50;99.90;;;;;;5034483;28;20548;-36
2023/01/24 07:44:05;;;;;;;17.38;11.05;;;2.60;99.90;;;;;;5034594;28;20120;-36
2023/01/24 07:46:34;;;;;;;15.07;11.23;;;2.50;99.90;;;;;;5034492;28;20047;-40
2023/01/24 07:49:01;;;;;;;16.23;10.93;;;2.50;99.90;;;;;;5034039;28;20494;-35
2023/01/24 07:51:27;;;;;;;15.73;10.77;;;2.50;99.90;;;;;;5034094;28;20045;-36
2023/01/24 07:53:53;;;;;;;16.63;11.57;;;2.50;99.90;;;;;;5034405;28;20269;-37
2023/01/24 07:56:18;;;;;;;15.50;11.23;;;2.50;99.90;;;;;;5034665;28;20079;-37
2023/01/24 07:58:44;;;;;;;16.30;11.63;;;2.50;99.90;;;;;;5035150;28;20116;-35
2023/01/24 08:01:19;;;;;;;16.33;11.05;;;2.50;99.90;;;;;;5034903;28;20482;-40
2023/01/24 08:03:45;;;;;;;16.52;11.75;;;2.50;99.90;;;;;;5034251;28;20104;-41
2023/01/24 08:06:11;;;;;;;14.55;11.18;;;2.50;99.90;;;;;;5035156;28;20107;-37
2023/01/24 08:08:37;;;;;;;15.95;12.18;;;2.50;99.90;;;;;;5034237;28;20481;-37
2023/01/24 08:11:03;;;;;;;15.93;11.98;;;2.50;99.90;;;;;;5033958;28;20052;-37
2023/01/24 08:13:28;;;;;;;15.80;11.60;;;2.50;99.90;;;;;;5033416;28;20036;-37
2023/01/24 08:15:54;;;;;;;16.48;11.57;;;2.50;99.90;;;;;;5033845;28;20037;-37
2023/01/24 08:18:20;;;;;;;17.23;12.02;;;2.50;99.90;;;;;;5032048;28;20116;-37
2023/01/24 08:20:46;;;;;;;15.43;11.80;;;2.50;99.90;;;;;;5026748;28;20124;-37
2023/01/24 08:23:11;;;;;;;15.70;11.82;;;2.50;99.90;;;;;;5029806;28;20037;-37
2023/01/24 08:25:37;;;;;;;16.65;12.10;;;2.50;99.90;;;;;;5027654;28;20037;-36
2023/01/24 08:28:03;;;;;;;16.42;11.95;;;2.50;99.90;;;;;;5034666;28;20037;-38
2023/01/24 08:30:29;;;;;;;15.48;11.27;;;2.50;99.90;;;;;;5034082;28;20509;-40
2023/01/24 08:33:05;;;;;;;18.00;12.48;;;2.50;99.90;;;;;;5034099;28;20075;-37
2023/01/24 08:35:32;;;;;;;18.42;12.30;;;2.50;99.90;;;;;;5034260;28;20112;-37
2023/01/24 08:37:58;;;;;;;15.65;11.43;;;2.50;99.90;;;;;;5034520;28;20171;-40
2023/01/24 08:40:24;;;;;;;16.65;12.65;;;2.50;99.90;;;;;;5034513;28;20498;-38
2023/01/24 08:42:50;;;;;;;14.80;11.52;;;2.50;99.90;;;;;;5031011;28;20038;-37
2023/01/24 08:45:16;;;;;;;21.38;12.65;;;2.50;99.90;;;;;;5033399;28;20075;-37
2023/01/24 08:47:42;;;;;;;17.52;12.88;;;2.50;99.90;;;;;;5034611;28;20037;-37
2023/01/24 08:50:08;;;;;;;17.08;12.48;;;2.50;99.90;;;;;;5033363;28;20049;-37
2023/01/24 08:52:34;;;;;;;17.20;12.80;;;2.60;99.90;;;;;;5033271;28;20071;-38
2023/01/24 08:55:00;;;;;;;18.35;13.20;;;2.50;99.90;;;;;;5033560;28;20041;-37
2023/01/24 08:57:25;;;;;;;16.73;11.95;;;2.60;99.90;;;;;;5033017;28;20387;-37
2023/01/24 08:59:51;;;;;;;18.13;13.30;;;2.60;99.90;;;;;;5033258;28;20083;-37
2023/01/24 09:02:17;;;;;;;18.27;12.65;;;2.50;99.90;;;;;;5032717;28;20045;-37
2023/01/24 09:04:43;;;;;;;16.05;11.57;;;2.60;99.90;;;;;;5051110;28;20502;-38
2023/01/24 09:07:12;;;;;;;16.80;12.85;;;2.60;99.90;;;;;;5032973;28;20080;-37
2023/01/24 09:09:38;;;;;;;17.98;12.32;;;2.60;99.90;;;;;;5033077;28;20029;-38
2023/01/24 09:12:04;;;;;;;18.30;13.25;;;2.60;99.90;;;;;;5032799;28;20052;-37
2023/01/24 09:14:30;;;;;;;19.55;13.32;;;2.60;99.90;;;;;;5015923;28;20076;-38
2023/01/24 09:16:56;;;;;;;18.45;13.13;;;2.60;99.90;;;;;;5032929;28;20046;-38
2023/01/24 09:19:23;;;;;;;18.55;13.00;;;2.60;99.90;;;;;;5032562;28;20037;-38
2023/01/24 09:21:51;;;;;;;16.85;12.80;;;2.70;99.90;;;;;;5032496;28;20071;-37
2023/01/24 09:24:18;;;;;;;17.27;12.35;;;2.70;99.90;;;;;;5032364;28;20044;-37
2023/01/24 09:26:44;;;;;;;17.10;12.85;;;2.70;99.90;;;;;;5032878;28;20040;-37
2023/01/24 09:29:11;;;;;;;18.88;13.60;;;2.70;99.90;;;;;;5032557;28;20086;-37
2023/01/24 09:31:37;;;;;;;18.83;14.15;;;2.60;99.90;;;;;;5032906;28;20029;-37
2023/01/24 09:34:03;;;;;;;17.80;13.23;;;2.60;99.90;;;;;;5048536;28;20448;-37
2023/01/24 09:36:29;;;;;;;19.42;13.02;;;2.60;99.90;;;;;;5033484;28;20029;-37
2023/01/24 09:38:56;;;;;;;18.05;12.63;;;2.70;99.90;;;;;;5020004;28;20037;-37
2023/01/24 09:41:31;;;;;;;17.48;14.05;;;2.70;99.90;;;;;;5028286;28;20402;-37
2023/01/24 09:44:07;;;;;;;18.75;13.75;;;2.70;99.90;;;;;;5035723;28;20485;-37
2023/01/24 09:46:44;;;;;;;18.17;13.55;;;2.70;99.90;;;;;;5032265;28;20033;-37
2023/01/24 09:49:22;;;;;;;18.88;14.38;;;2.70;99.90;;;;;;5033758;28;20075;-37
2023/01/24 09:51:51;;;;;;;19.63;14.38;;;2.80;99.90;;;;;;5035924;28;20040;-37
2023/01/24 09:54:32;;;;;;;19.13;14.20;;;2.80;99.90;;;;;;5035590;28;20033;-38
2023/01/24 09:56:57;;;;;;;19.75;14.23;;;2.80;99.90;;;;;;5036180;28;20508;-37
2023/01/24 09:59:38;;;;;;;15.75;12.38;;;2.80;99.90;;;;;;5035794;28;20029;-37
2023/01/24 10:02:16;;;;;;;17.60;13.23;;;2.80;99.90;;;;;;5031854;28;20042;-37
2023/01/24 10:04:42;;;;;;;18.70;12.70;;;2.80;99.90;;;;;;5035906;28;20397;-37
2023/01/24 10:07:29;;;;;;;17.80;13.13;;;2.80;99.90;;;;;;5035965;28;20553;-37
2023/01/24 10:09:58;;;;;;;17.05;12.68;;;2.80;99.90;;;;;;5059711;28;20098;-37
2023/01/24 10:12:30;;;;;;;17.40;12.93;;;2.80;99.90;;;;;;5038706;28;20041;-37
2023/01/24 10:15:06;;;;;;;15.88;12.27;;;2.90;99.90;;;;;;5018562;28;20068;-37
2023/01/24 10:20:33;;;;;;;17.23;12.48;;;2.90;99.90;;;;;;4910824;22;20052;-38
2023/01/24 10:23:12;;;;;;;16.92;12.63;;;2.90;99.90;;;;;;5062802;28;20091;-39
2023/01/24 10:25:44;;;;;;;14.80;11.95;;;2.90;99.90;;;;;;5057703;28;20063;-41
2023/01/24 10:28:25;;;;;;;17.33;12.68;;;2.90;99.90;;;;;;5077958;28;20036;-38
2023/01/24 10:31:06;;;;;;;16.98;12.40;;;2.90;99.90;;;;;;5077583;28;20375;-39
2023/01/24 10:33:45;;;;;;;16.40;12.35;;;2.90;99.90;;;;;;5059696;28;20044;-39
2023/01/24 10:36:28;;;;;;;16.90;12.95;;;2.90;99.90;;;;;;5059459;28;20311;-39
2023/01/24 10:38:54;;;;;;;17.48;12.00;;;2.90;99.90;;;;;;5046952;28;20033;-39
2023/01/24 10:41:24;;;;;;;15.50;11.85;;;2.90;99.90;;;;;;5059356;28;20051;-38
2023/01/24 10:43:59;;;;;;;16.23;12.27;;;2.90;99.90;;;;;;5059150;28;20040;-39
2023/01/24 10:46:52;;;;;;;16.30;11.45;;;2.90;99.90;;;;;;5057359;28;20044;-38
2023/01/24 10:49:31;;;;;;;18.67;12.47;;;2.90;99.90;;;;;;5056486;28;20048;-40
2023/01/24 10:52:18;;;;;;;15.27;11.75;;;2.90;99.90;;;;;;5050294;28;20072;-38
2023/01/24 10:54:51;;;;;;;14.23;11.10;;;2.90;99.90;;;;;;5058944;28;20093;-38
2023/01/24 10:57:32;;;;;;;17.77;12.10;;;2.90;99.90;;;;;;5045392;28;20469;-39
2023/01/24 11:00:35;;;;;;;14.77;10.55;;;2.90;99.90;;;;;;5059676;28;20060;-39
2023/01/24 11:03:04;;;;;;;15.57;11.00;;;2.90;99.90;;;;;;5058133;28;20059;-39
2023/01/24 11:05:52;;;;;;;17.10;12.27;;;2.80;99.90;;;;;;5042523;28;20127;-39
2023/01/24 11:08:52;;;;;;;18.60;11.98;;;2.80;99.90;;;;;;5059230;28;20036;-38
2023/01/24 11:11:28;;;;;;;17.50;12.30;;;2.80;99.90;;;;;;5054109;28;20080;-39
2023/01/24 11:13:56;;;;;;;16.65;11.90;;;2.80;99.90;;;;;;5059097;28;20512;-39
2023/01/24 11:16:30;;;;;;;14.90;12.07;;;2.80;99.90;;;;;;5042693;28;20127;-38
2023/01/24 11:19:02;;;;;;;18.15;12.13;;;2.90;99.90;;;;;;5058841;28;20039;-38
2023/01/24 11:21:29;;;;;;;17.27;12.00;;;2.90;99.90;;;;;;5058740;28;20214;-40
2023/01/24 11:24:05;;;;;;;14.88;11.10;;;2.90;99.90;;;;;;5076052;28;20040;-38
2023/01/24 11:26:35;;;;;;;14.98;11.77;;;2.90;99.90;;;;;;5056989;28;20037;-38
2023/01/24 11:29:22;;;;;;;18.00;11.85;;;2.90;99.90;;;;;;5056726;28;20036;-39
2023/01/24 11:31:51;;;;;;;15.18;11.65;;;2.90;99.90;;;;;;5058121;28;20048;-39
2023/01/24 11:35:01;;;;;;;16.63;12.10;;;2.90;99.90;;;;;;5058929;28;20370;-38
2023/01/24 11:37:44;;;;;;;15.35;11.73;;;2.90;99.90;;;;;;5076709;28;20094;-38
2023/01/24 11:40:20;;;;;;;14.55;11.05;;;2.90;99.90;;;;;;5062154;28;20044;-39
2023/01/24 11:42:51;;;;;;;13.63;11.63;;;2.90;99.90;;;;;;5068828;28;20047;-40
2023/01/24 11:45:36;;;;;;;17.00;12.13;;;3.00;99.90;;;;;;5046312;28;20064;-39
2023/01/24 11:48:17;;;;;;;16.00;12.02;;;2.90;99.90;;;;;;5057879;28;20073;-39
2023/01/24 11:50:55;;;;;;;15.38;11.85;;;3.00;99.90;;;;;;5030609;28;20032;-39
2023/01/24 11:53:59;;;;;;;16.63;12.48;;;3.00;99.90;;;;;;5075407;28;20044;-39
2023/01/24 11:56:40;;;;;;;18.63;13.13;;;3.00;99.90;;;;;;5048466;28;20116;-46
2023/01/24 11:59:40;;;;;;;14.48;12.07;;;3.00;99.90;;;;;;5036452;28;20044;-38
2023/01/24 12:02:18;;;;;;;16.73;12.15;;;3.00;99.90;;;;;;5076538;28;20451;-38
2023/01/24 12:05:11;;;;;;;16.35;12.43;;;3.00;99.90;;;;;;5067945;28;20047;-39
2023/01/24 12:08:05;;;;;;;16.25;12.13;;;3.00;99.90;;;;;;5046198;28;20099;-40
2023/01/24 12:10:39;;;;;;;15.98;11.98;;;3.00;99.90;;;;;;5076371;28;20064;-47
2023/01/24 12:13:35;;;;;;;14.40;11.60;;;3.00;99.90;;;;;;5057954;28;20048;-39
2023/01/24 12:16:28;;;;;;;16.88;12.38;;;3.00;99.90;;;;;;5070790;28;20516;-38
2023/01/24 12:19:13;;;;;;;14.10;11.90;;;3.00;99.90;;;;;;5054706;28;20497;-38
2023/01/24 12:21:39;;;;;;;14.88;11.85;;;2.90;99.90;;;;;;5056858;28;20182;-39
2023/01/24 12:24:24;;;;;;;14.68;11.65;;;2.90;99.90;;;;;;5075873;28;20075;-40
2023/01/24 12:27:00;;;;;;;15.13;11.95;;;2.90;99.90;;;;;;5071971;28;20075;-39
2023/01/24 12:29:26;;;;;;;14.10;11.57;;;3.00;99.90;;;;;;5052172;28;20036;-39
2023/01/24 12:31:58;;;;;;;16.95;12.15;;;3.00;99.90;;;;;;5076047;28;20119;-40
2023/01/24 12:34:24;;;;;;;16.55;11.68;;;3.00;99.90;;;;;;5057830;28;20115;-39
2023/01/24 12:37:13;;;;;;;14.27;11.45;;;3.10;99.90;;;;;;5057994;28;20060;-37
2023/01/24 12:40:02;;;;;;;15.88;11.93;;;3.10;99.90;;;;;;5041426;28;20044;-37
2023/01/24 12:43:00;;;;;;;14.43;11.02;;;3.00;99.90;;;;;;5057369;28;20068;-38
2023/01/24 12:45:34;;;;;;;13.55;10.90;;;3.00;99.90;;;;;;5023537;28;20049;-37
2023/01/24 12:48:10;;;;;;;17.30;12.10;;;3.00;99.90;;;;;;5075345;28;20504;-37
2023/01/24 12:50:53;;;;;;;15.43;11.32;;;3.00;99.90;;;;;;5057877;28;20036;-37
2023/01/24 12:53:21;;;;;;;14.93;11.43;;;3.00;99.90;;;;;;5057481;28;20479;-36
2023/01/24 12:56:23;;;;;;;16.02;12.00;;;3.00;99.90;;;;;;5057605;28;20033;-37
2023/01/24 12:58:51;;;;;;;14.77;12.02;;;3.00;99.90;;;;;;5044757;28;20055;-37
2023/01/24 13:01:55;;;;;;;16.55;12.02;;;3.00;99.90;;;;;;5074804;28;20047;-37
2023/01/24 13:49:39;;;;;;;14.95;11.68;;;2.70;99.90;;;;;;5079272;28;20040;-36
2023/01/24 15:33:01;;;;;;;17.85;12.90;;;2.30;99.90;;;;;;5026201;28;20539;-36
2023/01/24 15:35:38;;;;;;;17.05;12.55;;;2.30;99.90;;;;;;5056203;28;20409;-36
2023/01/24 15:38:32;;;;;;;16.42;13.13;;;2.20;99.90;;;;;;5076326;28;20052;-36
2023/01/24 15:41:20;;;;;;;16.77;13.02;;;2.20;99.90;;;;;;5077841;28;20086;-37
2023/01/24 15:44:08;;;;;;;17.95;13.82;;;2.20;99.90;;;;;;5078750;28;20069;-36
2023/01/24 15:49:29;;;;;;;18.00;13.05;;;2.20;99.90;;;;;;5076884;28;20108;-42
2023/01/24 15:52:11;;;;;;;17.88;12.48;;;2.20;99.90;;;;;;5059061;28;20249;-36
2023/01/24 15:54:45;;;;;;;18.27;12.82;;;2.10;99.90;;;;;;5058536;28;20498;-37
2023/01/24 15:57:20;;;;;;;15.82;12.07;;;2.10;99.90;;;;;;5076770;28;20036;-38
2023/01/24 15:59:52;;;;;;;17.23;11.82;;;2.10;99.90;;;;;;5076569;28;20041;-35
2023/01/24 16:02:20;;;;;;;16.67;11.93;;;2.10;99.90;;;;;;5059439;28;20040;-36
2023/01/24 16:04:47;;;;;;;16.75;11.68;;;2.10;99.90;;;;;;5058774;28;20066;-36